MSC Mars — D5KN4 — position and weather

sailwx.info

Track history (hours):
 
Tides and Currents Weather Stations Pressure Air Temp Water Temp Dewpoint Dewpoint Depression Visibility Wind Speed Wind Dir Waves Ship Positions

MSC Mars

Last reported at 2018-Jun-19 04:10 UTC. Time now 2018-Jun-21 00:59 UTC.
Position N 01°30' E 104°37'.

Length 324 m; draft 10.4 m.

Type: Ship. MMSI: 636017357.

Date/timePositionNaut miles runAvg speedWind from/ knotsBaromVisibWave heightAir tempDewpointWater temp
2018-Jun-19 04:10N 01°30' E 104°37'316.2
2018-Jun-19 04:00N 01°29' E 104°35'816.1
2018-Jun-19 03:29N 01°23' E 104°28'917.5
2018-Jun-19 02:59N 01°18' E 104°21'816.7
2018-Jun-19 02:30N 01°15' E 104°14'1817.9
2018-Jun-19 01:30N 01°13' E 103°56'714.0
2018-Jun-19 01:00N 01°12' E 103°49'4 8.5
2018-Jun-19 00:30N 01°15' E 103°47'1 2.9
2018-Jun-19 00:00N 01°17' E 103°47'0 0.0
2018-Jun-18 23:30N 01°17' E 103°47'0 0.0
2018-Jun-18 22:59N 01°17' E 103°47'0 0.0
2018-Jun-18 22:29N 01°17' E 103°47'0 0.0
2018-Jun-18 21:59N 01°17' E 103°47'0 0.0
2018-Jun-18 21:29N 01°17' E 103°47'0 0.0
2018-Jun-18 20:59N 01°17' E 103°47'0 0.0
2018-Jun-18 20:30N 01°17' E 103°47'0 0.0
2018-Jun-18 19:59N 01°17' E 103°47'0 0.0
2018-Jun-18 19:30N 01°17' E 103°47'0 0.0
2018-Jun-18 18:59N 01°17' E 103°47'0 0.0
2018-Jun-18 18:30N 01°17' E 103°47'0 0.0
2018-Jun-18 17:59N 01°17' E 103°47'0 0.0
2018-Jun-18 17:29N 01°17' E 103°47'0 0.0
2018-Jun-18 16:59N 01°17' E 103°47'0 0.0
2018-Jun-18 16:29N 01°17' E 103°47'0 0.0
2018-Jun-18 15:59N 01°17' E 103°47'0 0.0
2018-Jun-18 15:30N 01°17' E 103°47'0 0.0
2018-Jun-18 14:59N 01°17' E 103°47'0 0.0
2018-Jun-18 14:30N 01°17' E 103°47'0 0.0
2018-Jun-18 14:00N 01°17' E 103°47'0 0.7
2018-Jun-18 13:30N 01°16' E 103°47'1 2.3
2018-Jun-18 13:00N 01°15' E 103°46'4 8.9
2018-Jun-18 12:30N 01°13' E 103°42'4 8.4
2018-Jun-18 12:00N 01°12' E 103°38'2 4.7
2018-Jun-18 11:29N 01°12' E 103°36'3 6.5
2018-Jun-18 11:00N 01°11' E 103°33'2 3.7
2018-Jun-18 10:30N 01°10' E 103°31'1 2.7
2018-Jun-18 10:00N 01°10' E 103°30'2 4.4
2018-Jun-18 09:30N 01°10' E 103°27'3 5.6
2018-Jun-18 09:00N 01°12' E 103°25'3 6.8
2018-Jun-18 08:30N 01°14' E 103°22'4 8.3
2018-Jun-18 07:59N 01°17' E 103°19'4 8.0
2018-Jun-18 07:28N 01°19' E 103°16'712.5
2018-Jun-18 06:57N 01°24' E 103°11'1215.0
2018-Jun-18 06:10N 01°30' E 103°01'315.5
2018-Jun-18 05:58N 01°32' E 102°59'  
Track history (hours):
 
Tides and Currents Weather Stations Pressure Air Temp Water Temp Dewpoint Dewpoint Depression Visibility Wind Speed Wind Dir Waves Ship Positions

MSC Mars

Last reported at 2018-Jun-19 04:10 UTC. Time now 2018-Jun-21 00:59 UTC.
Position N 01°30' E 104°37'.

Length 324 m; draft 10.4 m.

Type: Ship. MMSI: 636017357.

Date/timePositionNaut miles runAvg speedWind from/ knotsBaromVisibWave heightAir tempDewpointWater temp
2018-Jun-19 04:10N 01°30' E 104°37'316.2
2018-Jun-19 04:00N 01°29' E 104°35'816.1
2018-Jun-19 03:29N 01°23' E 104°28'917.5
2018-Jun-19 02:59N 01°18' E 104°21'816.7
2018-Jun-19 02:30N 01°15' E 104°14'1817.9
2018-Jun-19 01:30N 01°13' E 103°56'714.0
2018-Jun-19 01:00N 01°12' E 103°49'4 8.5
2018-Jun-19 00:30N 01°15' E 103°47'1 2.9
2018-Jun-19 00:00N 01°17' E 103°47'0 0.0
2018-Jun-18 23:30N 01°17' E 103°47'0 0.0
2018-Jun-18 22:59N 01°17' E 103°47'0 0.0
2018-Jun-18 22:29N 01°17' E 103°47'0 0.0
2018-Jun-18 21:59N 01°17' E 103°47'0 0.0
2018-Jun-18 21:29N 01°17' E 103°47'0 0.0
2018-Jun-18 20:59N 01°17' E 103°47'0 0.0
2018-Jun-18 20:30N 01°17' E 103°47'0 0.0
2018-Jun-18 19:59N 01°17' E 103°47'0 0.0
2018-Jun-18 19:30N 01°17' E 103°47'0 0.0
2018-Jun-18 18:59N 01°17' E 103°47'0 0.0
2018-Jun-18 18:30N 01°17' E 103°47'0 0.0
2018-Jun-18 17:59N 01°17' E 103°47'0 0.0
2018-Jun-18 17:29N 01°17' E 103°47'0 0.0
2018-Jun-18 16:59N 01°17' E 103°47'0 0.0
2018-Jun-18 16:29N 01°17' E 103°47'0 0.0
2018-Jun-18 15:59N 01°17' E 103°47'0 0.0
2018-Jun-18 15:30N 01°17' E 103°47'0 0.0
2018-Jun-18 14:59N 01°17' E 103°47'0 0.0
2018-Jun-18 14:30N 01°17' E 103°47'0 0.0
2018-Jun-18 14:00N 01°17' E 103°47'0 0.7
2018-Jun-18 13:30N 01°16' E 103°47'1 2.3
2018-Jun-18 13:00N 01°15' E 103°46'4 8.9
2018-Jun-18 12:30N 01°13' E 103°42'4 8.4
2018-Jun-18 12:00N 01°12' E 103°38'2 4.7
2018-Jun-18 11:29N 01°12' E 103°36'3 6.5
2018-Jun-18 11:00N 01°11' E 103°33'2 3.7
2018-Jun-18 10:30N 01°10' E 103°31'1 2.7
2018-Jun-18 10:00N 01°10' E 103°30'2 4.4
2018-Jun-18 09:30N 01°10' E 103°27'3 5.6
2018-Jun-18 09:00N 01°12' E 103°25'3 6.8
2018-Jun-18 08:30N 01°14' E 103°22'4 8.3
2018-Jun-18 07:59N 01°17' E 103°19'4 8.0
2018-Jun-18 07:28N 01°19' E 103°16'712.5
2018-Jun-18 06:57N 01°24' E 103°11'1215.0
2018-Jun-18 06:10N 01°30' E 103°01'315.5
2018-Jun-18 05:58N 01°32' E 102°59'  

Dump ship's entire track history